createdAt,value
2023-03-31T00:16:52.492Z,972.7
2023-03-31T00:36:17.929Z,972.6
2023-03-31T00:55:38.668Z,972.3
2023-03-31T01:15:00.189Z,971.9
2023-03-31T01:34:20.168Z,971.4
2023-03-31T01:53:43.147Z,971.2
2023-03-31T02:13:05.168Z,970.8
2023-03-31T02:32:28.535Z,970.4
2023-03-31T02:51:51.563Z,970
2023-03-31T03:11:13.780Z,969.2
2023-03-31T03:30:37.237Z,968.9
2023-03-31T03:50:00.116Z,968.7
2023-03-31T04:09:23.222Z,968
2023-03-31T04:28:46.315Z,967.9
2023-03-31T04:48:08.293Z,967.7
2023-03-31T05:07:31.230Z,967.4
2023-03-31T05:26:54.107Z,966.6
2023-03-31T05:46:15.927Z,966.4
2023-03-31T06:05:38.562Z,966.2
2023-03-31T06:25:03.769Z,965.5
2023-03-31T06:44:26.865Z,965.7
2023-03-31T07:03:50.234Z,965.4
2023-03-31T07:23:13.707Z,965.2
2023-03-31T07:42:36.354Z,965.1
2023-03-31T08:01:57.825Z,965.1
2023-03-31T08:21:25.041Z,964.8
2023-03-31T08:40:47.856Z,964.5
2023-03-31T09:00:13.153Z,964.5
2023-03-31T09:19:38.675Z,964.3
2023-03-31T09:39:04.324Z,964.1
2023-03-31T09:58:22.969Z,963.8
2023-03-31T10:17:56.045Z,963.4
2023-03-31T10:37:10.862Z,963.3
2023-03-31T10:56:33.111Z,963.2
2023-03-31T11:15:52.660Z,963.2
2023-03-31T11:35:15.932Z,963.1
2023-03-31T11:54:39.796Z,963.3
2023-03-31T12:14:01.854Z,963
2023-03-31T12:33:25.454Z,962.8
2023-03-31T12:52:42.805Z,962.7
2023-03-31T13:12:04.169Z,962.5
2023-03-31T13:31:28.408Z,962.3
2023-03-31T13:50:50.370Z,962.6
2023-03-31T14:10:05.581Z,962.9
2023-03-31T14:29:30.341Z,962.6
2023-03-31T14:48:53.300Z,962.4
2023-03-31T15:08:17.888Z,962.1
2023-03-31T15:27:42.621Z,962
2023-03-31T15:47:04.677Z,961.8
2023-03-31T16:06:25.226Z,961.8
2023-03-31T16:25:46.369Z,961.8
2023-03-31T16:45:15.308Z,962.1
2023-03-31T17:04:30.902Z,962.2
2023-03-31T17:23:52.959Z,962.2
2023-03-31T17:43:15.260Z,962.1
2023-03-31T18:02:36.333Z,962.1
2023-03-31T18:21:57.106Z,962.2
2023-03-31T18:41:19.602Z,962.3
2023-03-31T19:00:41.514Z,962.5
2023-03-31T19:20:01.833Z,962.4
2023-03-31T19:39:24.210Z,962.6
2023-03-31T19:58:45.970Z,962.5
2023-03-31T20:18:07.314Z,962.4
2023-03-31T20:37:29.410Z,962.4
2023-03-31T20:56:50.909Z,962.4
2023-03-31T21:16:12.571Z,962.4
2023-03-31T21:35:35.828Z,962.3
2023-03-31T21:54:57.414Z,962.3
2023-03-31T22:14:20.596Z,962.3
2023-03-31T22:33:42.931Z,962.3
2023-03-31T22:53:05.472Z,962.3
2023-03-31T23:12:28.088Z,962.3
2023-03-31T23:31:50.661Z,962.3
2023-03-31T23:51:13.201Z,962.2
